sensor_id;sensor_type;location;lat;lon;timestamp;pressure;altitude;pressure_sealevel;temperature;humidity
12868;BME280;33517;49.866;8.320;2024-03-29T00:01:47;98615.34;;;6.28;77.50
12868;BME280;33517;49.866;8.320;2024-03-29T00:04:38;98609.69;;;6.24;77.50
12868;BME280;33517;49.866;8.320;2024-03-29T00:07:30;98597.97;;;6.20;77.12
12868;BME280;33517;49.866;8.320;2024-03-29T00:10:21;98594.13;;;6.31;78.87
12868;BME280;33517;49.866;8.320;2024-03-29T00:13:12;98583.16;;;6.57;79.93
12868;BME280;33517;49.866;8.320;2024-03-29T00:16:04;98577.38;;;6.61;78.90
12868;BME280;33517;49.866;8.320;2024-03-29T00:18:55;98579.25;;;6.67;78.00
12868;BME280;33517;49.866;8.320;2024-03-29T00:21:46;98573.78;;;6.83;78.27
12868;BME280;33517;49.866;8.320;2024-03-29T00:24:38;98576.69;;;6.95;78.05
12868;BME280;33517;49.866;8.320;2024-03-29T00:27:29;98575.28;;;6.92;78.24
12868;BME280;33517;49.866;8.320;2024-03-29T00:30:20;98573.94;;;6.96;77.64
12868;BME280;33517;49.866;8.320;2024-03-29T00:33:11;98571.16;;;7.04;76.63
12868;BME280;33517;49.866;8.320;2024-03-29T00:36:02;98574.66;;;7.11;76.69
12868;BME280;33517;49.866;8.320;2024-03-29T00:38:54;98566.63;;;7.13;76.41
12868;BME280;33517;49.866;8.320;2024-03-29T00:41:46;98572.28;;;7.16;77.43
12868;BME280;33517;49.866;8.320;2024-03-29T00:44:37;98554.25;;;7.21;77.68
12868;BME280;33517;49.866;8.320;2024-03-29T00:47:28;98554.91;;;7.30;77.41
12868;BME280;33517;49.866;8.320;2024-03-29T00:50:19;98551.13;;;7.39;77.33
12868;BME280;33517;49.866;8.320;2024-03-29T00:53:10;98542.81;;;7.57;76.32
12868;BME280;33517;49.866;8.320;2024-03-29T00:56:01;98547.97;;;7.78;75.07
12868;BME280;33517;49.866;8.320;2024-03-29T00:58:53;98538.78;;;7.88;74.32
12868;BME280;33517;49.866;8.320;2024-03-29T01:01:44;98536.69;;;8.11;73.03
12868;BME280;33517;49.866;8.320;2024-03-29T01:04:35;98540.00;;;8.26;73.22
12868;BME280;33517;49.866;8.320;2024-03-29T01:07:26;98543.63;;;8.32;73.17
12868;BME280;33517;49.866;8.320;2024-03-29T01:10:17;98542.41;;;8.28;72.92
12868;BME280;33517;49.866;8.320;2024-03-29T01:13:08;98541.16;;;8.24;74.23
12868;BME280;33517;49.866;8.320;2024-03-29T01:16:01;98550.41;;;8.20;73.70
12868;BME280;33517;49.866;8.320;2024-03-29T01:18:52;98550.19;;;8.15;73.84
12868;BME280;33517;49.866;8.320;2024-03-29T01:21:43;98539.47;;;8.10;74.61
12868;BME280;33517;49.866;8.320;2024-03-29T01:24:33;98514.25;;;8.02;74.79
12868;BME280;33517;49.866;8.320;2024-03-29T01:27:24;98505.41;;;8.03;75.55
12868;BME280;33517;49.866;8.320;2024-03-29T01:30:15;98497.34;;;8.05;76.13
12868;BME280;33517;49.866;8.320;2024-03-29T01:33:08;98485.84;;;7.99;76.29
12868;BME280;33517;49.866;8.320;2024-03-29T01:35:59;98500.34;;;7.95;76.20
12868;BME280;33517;49.866;8.320;2024-03-29T01:38:50;98495.28;;;7.94;75.36
12868;BME280;33517;49.866;8.320;2024-03-29T01:41:41;98508.75;;;7.91;75.52
12868;BME280;33517;49.866;8.320;2024-03-29T01:44:32;98511.59;;;7.89;75.50
12868;BME280;33517;49.866;8.320;2024-03-29T01:47:24;98504.75;;;7.88;75.29
12868;BME280;33517;49.866;8.320;2024-03-29T01:50:18;98496.66;;;7.83;75.55
12868;BME280;33517;49.866;8.320;2024-03-29T01:53:10;98507.31;;;7.82;75.48
12868;BME280;33517;49.866;8.320;2024-03-29T01:56:04;98514.56;;;7.80;74.75
12868;BME280;33517;49.866;8.320;2024-03-29T01:58:57;98512.34;;;7.83;75.46
12868;BME280;33517;49.866;8.320;2024-03-29T02:01:49;98512.16;;;7.85;74.58
12868;BME280;33517;49.866;8.320;2024-03-29T02:04:41;98521.63;;;7.86;75.37
12868;BME280;33517;49.866;8.320;2024-03-29T02:07:35;98519.03;;;7.86;75.33
12868;BME280;33517;49.866;8.320;2024-03-29T02:10:28;98514.00;;;7.91;75.13
12868;BME280;33517;49.866;8.320;2024-03-29T02:13:20;98520.09;;;7.98;75.60
12868;BME280;33517;49.866;8.320;2024-03-29T02:16:12;98545.31;;;8.05;75.14
12868;BME280;33517;49.866;8.320;2024-03-29T02:19:04;98556.63;;;8.12;74.81
12868;BME280;33517;49.866;8.320;2024-03-29T02:21:59;98547.78;;;8.20;74.25
12868;BME280;33517;49.866;8.320;2024-03-29T02:24:54;98539.53;;;8.23;73.98
12868;BME280;33517;49.866;8.320;2024-03-29T02:27:46;98533.28;;;8.24;74.99
12868;BME280;33517;49.866;8.320;2024-03-29T02:30:38;98543.63;;;8.32;74.80
12868;BME280;33517;49.866;8.320;2024-03-29T02:33:30;98526.94;;;8.40;74.90
12868;BME280;33517;49.866;8.320;2024-03-29T02:36:22;98519.88;;;8.47;73.81
12868;BME280;33517;49.866;8.320;2024-03-29T02:39:14;98510.63;;;8.51;73.55
12868;BME280;33517;49.866;8.320;2024-03-29T02:42:07;98506.81;;;8.53;74.58
12868;BME280;33517;49.866;8.320;2024-03-29T02:44:59;98484.63;;;8.62;73.76
12868;BME280;33517;49.866;8.320;2024-03-29T02:47:51;98486.88;;;8.72;74.47
12868;BME280;33517;49.866;8.320;2024-03-29T02:50:43;98481.81;;;8.77;73.27
12868;BME280;33517;49.866;8.320;2024-03-29T02:53:34;98487.88;;;8.77;73.56
12868;BME280;33517;49.866;8.320;2024-03-29T02:56:26;98518.50;;;8.64;74.55
12868;BME280;33517;49.866;8.320;2024-03-29T02:59:19;98522.06;;;8.36;76.11
12868;BME280;33517;49.866;8.320;2024-03-29T03:02:11;98550.72;;;8.45;75.71
12868;BME280;33517;49.866;8.320;2024-03-29T03:05:02;98540.03;;;8.46;73.61
12868;BME280;33517;49.866;8.320;2024-03-29T03:07:54;98532.66;;;8.76;70.15
12868;BME280;33517;49.866;8.320;2024-03-29T03:11:04;98526.44;;;9.03;67.36
12868;BME280;33517;49.866;8.320;2024-03-29T03:13:56;98496.56;;;9.23;65.68
12868;BME280;33517;49.866;8.320;2024-03-29T03:16:49;98499.38;;;9.35;65.00
12868;BME280;33517;49.866;8.320;2024-03-29T03:19:41;98524.81;;;9.41;63.39
12868;BME280;33517;49.866;8.320;2024-03-29T03:22:32;98539.94;;;9.52;63.47
12868;BME280;33517;49.866;8.320;2024-03-29T03:25:24;98532.25;;;9.57;63.29
12868;BME280;33517;49.866;8.320;2024-03-29T03:28:15;98530.63;;;9.63;62.79
12868;BME280;33517;49.866;8.320;2024-03-29T03:31:07;98532.03;;;9.72;61.98
12868;BME280;33517;49.866;8.320;2024-03-29T03:34:01;98546.38;;;9.76;61.77
12868;BME280;33517;49.866;8.320;2024-03-29T03:36:52;98546.34;;;9.82;61.03
12868;BME280;33517;49.866;8.320;2024-03-29T03:39:43;98548.75;;;9.84;60.83
12868;BME280;33517;49.866;8.320;2024-03-29T03:42:35;98542.13;;;9.81;61.38
12868;BME280;33517;49.866;8.320;2024-03-29T03:45:26;98549.00;;;9.76;61.67
12868;BME280;33517;49.866;8.320;2024-03-29T03:48:18;98534.06;;;9.70;61.54
12868;BME280;33517;49.866;8.320;2024-03-29T03:51:10;98526.97;;;9.70;62.37
12868;BME280;33517;49.866;8.320;2024-03-29T03:54:03;98534.06;;;9.63;62.45
12868;BME280;33517;49.866;8.320;2024-03-29T03:56:54;98505.41;;;9.62;62.84
12868;BME280;33517;49.866;8.320;2024-03-29T03:59:46;98495.28;;;9.65;63.60
12868;BME280;33517;49.866;8.320;2024-03-29T04:02:37;98506.19;;;9.69;63.76
12868;BME280;33517;49.866;8.320;2024-03-29T04:05:28;98515.47;;;9.65;62.39
12868;BME280;33517;49.866;8.320;2024-03-29T04:08:23;98521.13;;;9.75;62.73
12868;BME280;33517;49.866;8.320;2024-03-29T04:11:14;98515.66;;;9.83;62.72
12868;BME280;33517;49.866;8.320;2024-03-29T04:14:06;98517.44;;;9.89;62.43
12868;BME280;33517;49.866;8.320;2024-03-29T04:16:57;98523.31;;;9.84;62.55
12868;BME280;33517;49.866;8.320;2024-03-29T04:19:49;98536.84;;;9.88;62.71
12868;BME280;33517;49.866;8.320;2024-03-29T04:22:40;98513.22;;;9.81;62.11
12868;BME280;33517;49.866;8.320;2024-03-29T04:25:33;98521.75;;;9.64;63.47
12868;BME280;33517;49.866;8.320;2024-03-29T04:28:25;98519.13;;;9.57;64.98
12868;BME280;33517;49.866;8.320;2024-03-29T04:31:17;98509.00;;;9.61;64.72
12868;BME280;33517;49.866;8.320;2024-03-29T04:34:09;98509.44;;;9.58;66.45
12868;BME280;33517;49.866;8.320;2024-03-29T04:37:01;98506.59;;;9.59;66.51
12868;BME280;33517;49.866;8.320;2024-03-29T04:39:52;98512.88;;;9.58;67.47
12868;BME280;33517;49.866;8.320;2024-03-29T04:42:46;98499.53;;;9.53;68.41
12868;BME280;33517;49.866;8.320;2024-03-29T04:45:37;98501.00;;;9.03;71.93
12868;BME280;33517;49.866;8.320;2024-03-29T04:48:29;98506.03;;;8.85;73.88
12868;BME280;33517;49.866;8.320;2024-03-29T04:51:21;98502.94;;;8.43;77.76
12868;BME280;33517;49.866;8.320;2024-03-29T04:54:13;98493.69;;;8.40;77.35
12868;BME280;33517;49.866;8.320;2024-03-29T04:57:06;98495.25;;;8.34;79.28
12868;BME280;33517;49.866;8.320;2024-03-29T05:00:00;98504.94;;;8.34;80.14
12868;BME280;33517;49.866;8.320;2024-03-29T05:02:53;98503.31;;;8.26;81.71
12868;BME280;33517;49.866;8.320;2024-03-29T05:05:45;98506.47;;;8.22;82.03
12868;BME280;33517;49.866;8.320;2024-03-29T05:08:37;98496.81;;;8.22;81.53
12868;BME280;33517;49.866;8.320;2024-03-29T05:11:29;98503.03;;;8.15;83.22
12868;BME280;33517;49.866;8.320;2024-03-29T05:14:21;98498.00;;;8.20;82.96
12868;BME280;33517;49.866;8.320;2024-03-29T05:17:14;98498.25;;;8.25;82.48
12868;BME280;33517;49.866;8.320;2024-03-29T05:20:08;98512.41;;;8.30;82.19
12868;BME280;33517;49.866;8.320;2024-03-29T05:23:00;98505.72;;;8.34;81.77
12868;BME280;33517;49.866;8.320;2024-03-29T05:25:52;98509.59;;;8.45;82.24
12868;BME280;33517;49.866;8.320;2024-03-29T05:28:44;98513.03;;;8.52;81.33
12868;BME280;33517;49.866;8.320;2024-03-29T05:31:36;98514.28;;;8.63;81.24
12868;BME280;33517;49.866;8.320;2024-03-29T05:34:29;98518.97;;;8.80;80.44
12868;BME280;33517;49.866;8.320;2024-03-29T05:37:22;98528.84;;;8.98;79.37
12868;BME280;33517;49.866;8.320;2024-03-29T05:40:15;98529.28;;;9.14;78.84
12868;BME280;33517;49.866;8.320;2024-03-29T05:43:07;98533.13;;;9.18;79.24
12868;BME280;33517;49.866;8.320;2024-03-29T05:45:59;98534.50;;;9.27;79.21
12868;BME280;33517;49.866;8.320;2024-03-29T05:48:52;98533.09;;;9.32;79.49
12868;BME280;33517;49.866;8.320;2024-03-29T05:51:45;98539.13;;;9.32;80.76
12868;BME280;33517;49.866;8.320;2024-03-29T05:54:37;98535.91;;;9.37;80.16
12868;BME280;33517;49.866;8.320;2024-03-29T05:57:29;98544.41;;;9.25;80.66
12868;BME280;33517;49.866;8.320;2024-03-29T06:00:23;98546.63;;;9.15;82.16
12868;BME280;33517;49.866;8.320;2024-03-29T06:03:15;98555.91;;;9.18;82.61
12868;BME280;33517;49.866;8.320;2024-03-29T06:06:07;98567.22;;;9.32;82.34
12868;BME280;33517;49.866;8.320;2024-03-29T06:09:04;98565.59;;;9.50;81.59
12868;BME280;33517;49.866;8.320;2024-03-29T06:11:56;98563.97;;;9.56;82.07
12868;BME280;33517;49.866;8.320;2024-03-29T06:14:48;98566.19;;;9.52;82.23
12868;BME280;33517;49.866;8.320;2024-03-29T06:17:58;98568.22;;;9.44;83.34
12868;BME280;33517;49.866;8.320;2024-03-29T06:20:50;98566.41;;;9.51;83.52
12868;BME280;33517;49.866;8.320;2024-03-29T06:23:42;98563.75;;;9.57;82.68
12868;BME280;33517;49.866;8.320;2024-03-29T06:26:35;98559.34;;;9.64;83.41
12868;BME280;33517;49.866;8.320;2024-03-29T06:29:27;98560.50;;;9.75;82.56
12868;BME280;33517;49.866;8.320;2024-03-29T06:32:19;98563.13;;;9.75;82.41
12868;BME280;33517;49.866;8.320;2024-03-29T06:35:11;98567.75;;;9.86;82.73
12868;BME280;33517;49.866;8.320;2024-03-29T06:38:03;98574.00;;;9.91;82.91
12868;BME280;33517;49.866;8.320;2024-03-29T06:40:55;98570.59;;;9.91;83.68
12868;BME280;33517;49.866;8.320;2024-03-29T06:43:49;98564.91;;;9.94;84.15
12868;BME280;33517;49.866;8.320;2024-03-29T06:46:40;98564.91;;;9.94;83.85
12868;BME280;33517;49.866;8.320;2024-03-29T06:49:32;98559.66;;;9.94;84.19
12868;BME280;33517;49.866;8.320;2024-03-29T06:52:24;98554.78;;;10.04;83.46
12868;BME280;33517;49.866;8.320;2024-03-29T06:55:16;98561.06;;;10.16;83.19
12868;BME280;33517;49.866;8.320;2024-03-29T06:58:08;98558.56;;;10.34;83.16
12868;BME280;33517;49.866;8.320;2024-03-29T07:01:02;98552.47;;;10.40;82.67
12868;BME280;33517;49.866;8.320;2024-03-29T07:03:54;98549.81;;;10.47;82.30
12868;BME280;33517;49.866;8.320;2024-03-29T07:06:46;98559.91;;;10.50;81.46
12868;BME280;33517;49.866;8.320;2024-03-29T07:09:41;98551.78;;;10.58;80.11
12868;BME280;33517;49.866;8.320;2024-03-29T07:12:33;98542.41;;;10.68;78.92
12868;BME280;33517;49.866;8.320;2024-03-29T07:15:25;98545.34;;;10.85;78.17
12868;BME280;33517;49.866;8.320;2024-03-29T07:18:20;98545.88;;;10.93;77.69
12868;BME280;33517;49.866;8.320;2024-03-29T07:21:12;98534.53;;;10.93;75.26
12868;BME280;33517;49.866;8.320;2024-03-29T07:24:04;98535.72;;;10.97;75.32
12868;BME280;33517;49.866;8.320;2024-03-29T07:26:56;98532.25;;;11.03;74.18
12868;BME280;33517;49.866;8.320;2024-03-29T07:29:48;98531.84;;;11.06;72.64
12868;BME280;33517;49.866;8.320;2024-03-29T07:32:39;98528.66;;;11.22;72.44
12868;BME280;33517;49.866;8.320;2024-03-29T07:35:33;98525.88;;;11.42;72.25
12868;BME280;33517;49.866;8.320;2024-03-29T07:38:24;98519.75;;;11.48;69.50
12868;BME280;33517;49.866;8.320;2024-03-29T07:41:16;98518.66;;;11.55;70.27
12868;BME280;33517;49.866;8.320;2024-03-29T07:44:08;98530.97;;;11.61;68.98
12868;BME280;33517;49.866;8.320;2024-03-29T07:47:00;98532.53;;;11.69;68.83
12868;BME280;33517;49.866;8.320;2024-03-29T07:49:52;98535.75;;;11.71;67.57
12868;BME280;33517;49.866;8.320;2024-03-29T07:52:46;98519.22;;;11.82;67.68
12868;BME280;33517;49.866;8.320;2024-03-29T07:55:39;98531.06;;;11.91;67.66
12868;BME280;33517;49.866;8.320;2024-03-29T07:58:31;98535.75;;;11.89;65.84
12868;BME280;33517;49.866;8.320;2024-03-29T08:01:23;98545.75;;;12.05;66.95
12868;BME280;33517;49.866;8.320;2024-03-29T08:04:15;98549.97;;;12.06;66.56
12868;BME280;33517;49.866;8.320;2024-03-29T08:07:07;98548.22;;;12.00;65.94
12868;BME280;33517;49.866;8.320;2024-03-29T08:10:00;98548.81;;;12.20;64.89
12868;BME280;33517;49.866;8.320;2024-03-29T08:12:53;98558.13;;;12.23;65.33
12868;BME280;33517;49.866;8.320;2024-03-29T08:15:44;98552.63;;;12.24;64.95
12868;BME280;33517;49.866;8.320;2024-03-29T08:18:36;98569.16;;;12.31;65.40
12868;BME280;33517;49.866;8.320;2024-03-29T08:21:28;98559.41;;;12.14;65.02
12868;BME280;33517;49.866;8.320;2024-03-29T08:24:20;98571.19;;;11.93;65.22
12868;BME280;33517;49.866;8.320;2024-03-29T08:27:13;98571.13;;;11.81;66.41
12868;BME280;33517;49.866;8.320;2024-03-29T08:30:07;98571.13;;;11.81;67.12
12868;BME280;33517;49.866;8.320;2024-03-29T08:32:59;98585.53;;;11.79;68.88
12868;BME280;33517;49.866;8.320;2024-03-29T08:35:53;98578.88;;;11.94;68.79
12868;BME280;33517;49.866;8.320;2024-03-29T08:38:45;98586.47;;;12.09;68.98
12868;BME280;33517;49.866;8.320;2024-03-29T08:41:37;98586.97;;;12.18;69.32
12868;BME280;33517;49.866;8.320;2024-03-29T08:44:31;98594.28;;;12.34;69.75
12868;BME280;33517;49.866;8.320;2024-03-29T08:47:23;98589.66;;;12.29;71.13
12868;BME280;33517;49.866;8.320;2024-03-29T08:50:15;98600.81;;;12.13;70.49
12868;BME280;33517;49.866;8.320;2024-03-29T08:53:07;98603.56;;;12.00;69.72
12868;BME280;33517;49.866;8.320;2024-03-29T08:55:59;98614.41;;;11.92;68.91
12868;BME280;33517;49.866;8.320;2024-03-29T08:58:51;98621.84;;;11.77;70.26
12868;BME280;33517;49.866;8.320;2024-03-29T09:01:45;98633.13;;;11.84;70.62
12868;BME280;33517;49.866;8.320;2024-03-29T09:04:39;98631.31;;;11.84;70.66
12868;BME280;33517;49.866;8.320;2024-03-29T09:07:31;98648.63;;;11.74;71.22
12868;BME280;33517;49.866;8.320;2024-03-29T09:10:23;98655.88;;;11.78;71.33
12868;BME280;33517;49.866;8.320;2024-03-29T09:13:15;98652.34;;;11.60;71.33
12868;BME280;33517;49.866;8.320;2024-03-29T09:16:07;98655.78;;;11.29;72.09
12868;BME280;33517;49.866;8.320;2024-03-29T09:19:01;98663.13;;;11.27;72.35
12868;BME280;33517;49.866;8.320;2024-03-29T09:21:55;98662.97;;;11.47;73.33
12868;BME280;33517;49.866;8.320;2024-03-29T09:24:47;98655.84;;;11.54;73.32
12868;BME280;33517;49.866;8.320;2024-03-29T09:27:39;98666.09;;;11.62;74.10
12868;BME280;33517;49.866;8.320;2024-03-29T09:30:33;98668.28;;;11.09;75.20
12868;BME280;33517;49.866;8.320;2024-03-29T09:33:25;98677.66;;;10.98;77.22
12868;BME280;33517;49.866;8.320;2024-03-29T09:36:20;98675.56;;;11.07;76.68
12868;BME280;33517;49.866;8.320;2024-03-29T09:39:14;98680.38;;;11.17;77.49
12868;BME280;33517;49.866;8.320;2024-03-29T09:42:06;98677.38;;;10.62;78.79
12868;BME280;33517;49.866;8.320;2024-03-29T09:44:59;98691.59;;;10.42;81.61
12868;BME280;33517;49.866;8.320;2024-03-29T09:47:55;98707.16;;;10.43;81.75
12868;BME280;33517;49.866;8.320;2024-03-29T09:50:48;98711.81;;;10.48;82.66
12868;BME280;33517;49.866;8.320;2024-03-29T09:53:43;98706.00;;;10.13;83.71
12868;BME280;33517;49.866;8.320;2024-03-29T09:56:35;98704.78;;;10.02;86.35
12868;BME280;33517;49.866;8.320;2024-03-29T09:59:29;98714.69;;;10.20;87.02
12868;BME280;33517;49.866;8.320;2024-03-29T10:02:21;98720.97;;;10.19;87.83
12868;BME280;33517;49.866;8.320;2024-03-29T10:05:17;98715.09;;;10.04;89.21
12868;BME280;33517;49.866;8.320;2024-03-29T10:08:10;98717.53;;;9.99;89.90
12868;BME280;33517;49.866;8.320;2024-03-29T10:11:03;98727.25;;;10.18;90.89
12868;BME280;33517;49.866;8.320;2024-03-29T10:13:55;98722.19;;;10.10;92.00
12868;BME280;33517;49.866;8.320;2024-03-29T10:16:47;98711.06;;;10.21;93.17
12868;BME280;33517;49.866;8.320;2024-03-29T10:19:39;98718.31;;;10.32;92.25
12868;BME280;33517;49.866;8.320;2024-03-29T10:22:36;98715.66;;;10.45;92.57
12868;BME280;33517;49.866;8.320;2024-03-29T10:25:31;98717.50;;;9.79;95.72
12868;BME280;33517;49.866;8.320;2024-03-29T10:28:30;98704.38;;;9.86;97.58
12868;BME280;33517;49.866;8.320;2024-03-29T10:31:23;98696.88;;;10.09;97.33
12868;BME280;33517;49.866;8.320;2024-03-29T10:34:15;98695.66;;;10.05;97.02
12868;BME280;33517;49.866;8.320;2024-03-29T10:37:07;98696.47;;;10.05;98.53
12868;BME280;33517;49.866;8.320;2024-03-29T10:40:00;98687.41;;;10.28;98.54
12868;BME280;33517;49.866;8.320;2024-03-29T10:42:53;98677.03;;;10.52;98.12
12868;BME280;33517;49.866;8.320;2024-03-29T10:45:47;98670.50;;;10.61;96.70
12868;BME280;33517;49.866;8.320;2024-03-29T10:48:41;98676.16;;;10.71;96.50
12868;BME280;33517;49.866;8.320;2024-03-29T10:51:34;98670.84;;;10.78;95.83
12868;BME280;33517;49.866;8.320;2024-03-29T10:54:27;98663.34;;;10.81;94.98
12868;BME280;33517;49.866;8.320;2024-03-29T10:57:26;98668.00;;;10.86;95.60
12868;BME280;33517;49.866;8.320;2024-03-29T11:00:18;98662.72;;;10.92;95.13
12868;BME280;33517;49.866;8.320;2024-03-29T11:03:17;98662.72;;;11.24;95.38
12868;BME280;33517;49.866;8.320;2024-03-29T11:06:12;98659.38;;;11.41;94.24
12868;BME280;33517;49.866;8.320;2024-03-29T11:09:09;98656.09;;;11.46;93.67
12868;BME280;33517;49.866;8.320;2024-03-29T11:12:04;98645.56;;;11.77;93.26
12868;BME280;33517;49.866;8.320;2024-03-29T11:15:02;98640.50;;;12.18;91.03
12868;BME280;33517;49.866;8.320;2024-03-29T11:17:55;98640.75;;;12.53;90.64
12868;BME280;33517;49.866;8.320;2024-03-29T11:20:49;98641.78;;;12.34;90.06
12868;BME280;33517;49.866;8.320;2024-03-29T11:23:42;98644.38;;;11.97;91.70
12868;BME280;33517;49.866;8.320;2024-03-29T11:26:34;98663.41;;;11.99;92.68
12868;BME280;33517;49.866;8.320;2024-03-29T11:29:26;98669.53;;;11.93;93.59
12868;BME280;33517;49.866;8.320;2024-03-29T11:32:35;98679.97;;;11.82;93.97
12868;BME280;33517;49.866;8.320;2024-03-29T11:35:28;98687.63;;;11.65;94.97
12868;BME280;33517;49.866;8.320;2024-03-29T11:38:31;98694.81;;;11.76;95.34
12868;BME280;33517;49.866;8.320;2024-03-29T11:41:24;98687.03;;;11.88;96.21
12868;BME280;33517;49.866;8.320;2024-03-29T11:44:17;98684.63;;;11.86;96.28
12868;BME280;33517;49.866;8.320;2024-03-29T11:47:10;98683.72;;;11.92;97.31
12868;BME280;33517;49.866;8.320;2024-03-29T11:50:05;98692.22;;;12.19;96.91
12868;BME280;33517;49.866;8.320;2024-03-29T11:53:02;98689.47;;;12.32;97.83
12868;BME280;33517;49.866;8.320;2024-03-29T11:55:55;98694.44;;;12.40;96.86
12868;BME280;33517;49.866;8.320;2024-03-29T11:58:47;98688.69;;;12.86;96.36
12868;BME280;33517;49.866;8.320;2024-03-29T12:01:40;98700.63;;;13.07;93.96
12868;BME280;33517;49.866;8.320;2024-03-29T12:04:32;98710.09;;;13.14;93.82
12868;BME280;33517;49.866;8.320;2024-03-29T12:07:24;98703.97;;;13.14;93.53
12868;BME280;33517;49.866;8.320;2024-03-29T12:10:17;98707.88;;;12.93;92.61
12868;BME280;33517;49.866;8.320;2024-03-29T12:13:10;98700.53;;;12.95;95.38
12868;BME280;33517;49.866;8.320;2024-03-29T12:16:02;98695.97;;;13.02;95.80
12868;BME280;33517;49.866;8.320;2024-03-29T12:18:55;98701.66;;;13.06;95.04
12868;BME280;33517;49.866;8.320;2024-03-29T12:21:47;98698.25;;;12.98;95.89
12868;BME280;33517;49.866;8.320;2024-03-29T12:24:39;98702.38;;;13.13;95.45
12868;BME280;33517;49.866;8.320;2024-03-29T12:27:31;98700.41;;;13.08;94.96
12868;BME280;33517;49.866;8.320;2024-03-29T12:30:24;98718.34;;;12.99;95.47
12868;BME280;33517;49.866;8.320;2024-03-29T12:33:18;98722.00;;;13.05;96.93
12868;BME280;33517;49.866;8.320;2024-03-29T12:36:11;98727.41;;;13.10;97.34
12868;BME280;33517;49.866;8.320;2024-03-29T12:39:05;98727.00;;;12.88;97.11
12868;BME280;33517;49.866;8.320;2024-03-29T12:41:57;98726.88;;;12.83;99.04
12868;BME280;33517;49.866;8.320;2024-03-29T12:44:50;98727.28;;;12.80;98.57
12868;BME280;33517;49.866;8.320;2024-03-29T12:47:44;98721.06;;;12.75;99.93
12868;BME280;33517;49.866;8.320;2024-03-29T12:50:36;98721.00;;;12.81;100.00
12868;BME280;33517;49.866;8.320;2024-03-29T12:53:28;98725.41;;;12.87;99.40
12868;BME280;33517;49.866;8.320;2024-03-29T12:56:20;98741.31;;;13.17;100.00
12868;BME280;33517;49.866;8.320;2024-03-29T12:59:12;98750.78;;;13.25;99.52
12868;BME280;33517;49.866;8.320;2024-03-29T13:02:05;98754.56;;;13.47;97.98
12868;BME280;33517;49.866;8.320;2024-03-29T13:04:58;98761.69;;;13.76;95.97
12868;BME280;33517;49.866;8.320;2024-03-29T13:07:52;98767.22;;;13.98;95.47
12868;BME280;33517;49.866;8.320;2024-03-29T13:10:44;98757.00;;;14.01;94.09
12868;BME280;33517;49.866;8.320;2024-03-29T13:13:36;98744.91;;;14.46;93.59
12868;BME280;33517;49.866;8.320;2024-03-29T13:16:28;98765.59;;;14.72;91.14
12868;BME280;33517;49.866;8.320;2024-03-29T13:19:20;98760.72;;;15.04;90.22
12868;BME280;33517;49.866;8.320;2024-03-29T13:22:13;98753.31;;;15.06;88.13
12868;BME280;33517;49.866;8.320;2024-03-29T13:25:06;98748.53;;;14.92;88.09
12868;BME280;33517;49.866;8.320;2024-03-29T13:28:00;98747.28;;;14.83;87.80
12868;BME280;33517;49.866;8.320;2024-03-29T13:30:52;98746.38;;;14.65;86.59
12868;BME280;33517;49.866;8.320;2024-03-29T13:33:44;98756.28;;;14.47;85.88
12868;BME280;33517;49.866;8.320;2024-03-29T13:36:37;98752.94;;;14.51;86.24
12868;BME280;33517;49.866;8.320;2024-03-29T13:39:31;98750.28;;;14.63;85.42
12868;BME280;33517;49.866;8.320;2024-03-29T13:42:23;98750.97;;;14.58;84.88
12868;BME280;33517;49.866;8.320;2024-03-29T13:45:17;98762.50;;;14.64;85.63
12868;BME280;33517;49.866;8.320;2024-03-29T13:48:09;98760.31;;;14.61;85.82
12868;BME280;33517;49.866;8.320;2024-03-29T13:51:02;98756.41;;;14.52;86.29
12868;BME280;33517;49.866;8.320;2024-03-29T13:53:55;98752.03;;;14.46;86.59
12868;BME280;33517;49.866;8.320;2024-03-29T13:56:52;98746.34;;;14.19;85.61
12868;BME280;33517;49.866;8.320;2024-03-29T13:59:45;98746.44;;;14.13;86.48
12868;BME280;33517;49.866;8.320;2024-03-29T14:02:37;98746.94;;;14.21;86.80
12868;BME280;33517;49.866;8.320;2024-03-29T14:05:29;98748.91;;;14.60;86.36
12868;BME280;33517;49.866;8.320;2024-03-29T14:08:22;98756.50;;;14.45;88.65
12868;BME280;33517;49.866;8.320;2024-03-29T14:11:15;98756.63;;;14.39;92.02
12868;BME280;33517;49.866;8.320;2024-03-29T14:14:10;98760.63;;;14.30;94.06
12868;BME280;33517;49.866;8.320;2024-03-29T14:17:03;98755.94;;;14.32;93.87
12868;BME280;33517;49.866;8.320;2024-03-29T14:19:57;98764.00;;;14.37;95.18
12868;BME280;33517;49.866;8.320;2024-03-29T14:22:49;98778.16;;;14.31;94.53
12868;BME280;33517;49.866;8.320;2024-03-29T14:25:46;98774.97;;;14.11;94.19
12868;BME280;33517;49.866;8.320;2024-03-29T14:28:39;98774.03;;;14.05;95.52
12868;BME280;33517;49.866;8.320;2024-03-29T14:31:33;98761.28;;;14.14;94.94
12868;BME280;33517;49.866;8.320;2024-03-29T14:34:25;98761.69;;;14.40;94.59
12868;BME280;33517;49.866;8.320;2024-03-29T14:37:17;98760.53;;;14.36;93.78
12868;BME280;33517;49.866;8.320;2024-03-29T14:40:10;98743.41;;;14.39;93.75
12868;BME280;33517;49.866;8.320;2024-03-29T14:43:05;98737.31;;;14.38;93.66
12868;BME280;33517;49.866;8.320;2024-03-29T14:45:57;98736.53;;;13.97;94.74
12868;BME280;33517;49.866;8.320;2024-03-29T14:48:51;98739.31;;;14.02;94.42
12868;BME280;33517;49.866;8.320;2024-03-29T14:51:43;98731.94;;;13.92;96.23
12868;BME280;33517;49.866;8.320;2024-03-29T14:54:35;98727.81;;;13.96;96.10
12868;BME280;33517;49.866;8.320;2024-03-29T14:57:27;98706.97;;;14.00;95.12
12868;BME280;33517;49.866;8.320;2024-03-29T15:00:19;98697.09;;;14.07;94.04
12868;BME280;33517;49.866;8.320;2024-03-29T15:03:13;98704.91;;;14.02;94.51
12868;BME280;33517;49.866;8.320;2024-03-29T15:06:06;98719.78;;;14.14;93.80
12868;BME280;33517;49.866;8.320;2024-03-29T15:08:58;98716.31;;;14.14;94.63
12868;BME280;33517;49.866;8.320;2024-03-29T15:11:50;98691.13;;;14.00;95.34
12868;BME280;33517;49.866;8.320;2024-03-29T15:14:43;98673.88;;;14.09;94.46
12868;BME280;33517;49.866;8.320;2024-03-29T15:17:35;98699.63;;;14.02;93.99
12868;BME280;33517;49.866;8.320;2024-03-29T15:20:27;98719.69;;;13.68;96.34